createdAt,value
2023-04-27T00:03:36.435Z,417.84615
2023-04-27T00:08:37.839Z,436.8
2023-04-27T00:13:39.142Z,436.8
2023-04-27T00:18:40.618Z,436.8
2023-04-27T00:23:42.097Z,432.88889
2023-04-27T00:28:43.488Z,421.51938
2023-04-27T00:33:44.969Z,417.84615
2023-04-27T00:38:46.465Z,414.22901
2023-04-27T00:43:47.873Z,421.51938
2023-04-27T00:48:49.212Z,407.15789
2023-04-27T00:53:50.780Z,414.22901
2023-04-27T00:58:52.067Z,410.66667
2023-04-27T01:03:53.509Z,410.66667
2023-04-27T01:08:55.387Z,396.94118
2023-04-27T01:13:56.749Z,390.37681
2023-04-27T01:18:58.019Z,387.16547
2023-04-27T01:23:59.384Z,390.37681
2023-04-27T01:29:00.718Z,400.2963
2023-04-27T01:34:02.064Z,390.37681
2023-04-27T01:39:03.308Z,396.94118
2023-04-27T01:44:04.689Z,390.37681
2023-04-27T01:49:05.974Z,390.37681
2023-04-27T01:54:07.586Z,396.94118
2023-04-27T01:59:08.867Z,393.63504
2023-04-27T02:04:10.350Z,396.94118
2023-04-27T02:09:12.047Z,403.70149
2023-04-27T02:14:13.526Z,390.37681
2023-04-27T02:19:15.163Z,384
2023-04-27T02:24:16.778Z,393.63504
2023-04-27T02:29:18.043Z,387.16547
2023-04-27T02:34:19.723Z,374.76923
2023-04-27T02:39:20.976Z,368.82759
2023-04-27T02:44:22.451Z,357.42282
2023-04-27T02:49:24.020Z,315.08434
2023-04-27T02:54:25.600Z,321.91411
2023-04-27T02:59:26.879Z,321.91411
2023-04-27T03:04:28.690Z,338.87179
2023-04-27T03:09:30.258Z,329
2023-04-27T03:14:31.595Z,331.42138
2023-04-27T03:19:32.942Z,333.87342
2023-04-27T03:24:34.452Z,333.87342
2023-04-27T03:29:35.902Z,329
2023-04-27T03:34:37.241Z,331.42138
2023-04-27T03:39:38.618Z,329
2023-04-27T03:44:40.084Z,319.60976
2023-04-27T03:49:41.483Z,319.60976
2023-04-27T03:54:42.882Z,324.24691
2023-04-27T03:59:44.506Z,319.60976
2023-04-27T04:04:45.954Z,319.60976
2023-04-27T04:09:47.786Z,326.6087
2023-04-27T04:14:49.299Z,321.91411
2023-04-27T04:19:50.565Z,319.60976
2023-04-27T04:24:51.957Z,315.08434
2023-04-27T04:29:53.230Z,317.33333
2023-04-27T04:34:54.687Z,319.60976
2023-04-27T04:39:56.292Z,321.91411
2023-04-27T04:44:57.570Z,304.23392
2023-04-27T04:49:59.161Z,286.22222
2023-04-27T04:55:00.587Z,284.33149
2023-04-27T05:00:01.999Z,252
2023-04-27T05:05:03.440Z,245.96078
2023-04-27T05:10:04.751Z,230.51163
2023-04-27T05:15:06.207Z,225.27854
2023-04-27T05:20:07.698Z,225.27854
2023-04-27T05:25:08.964Z,233.20188
2023-04-27T05:30:10.455Z,268.21053
2023-04-27T05:35:11.703Z,288.13408
2023-04-27T05:40:13.330Z,290.06742
2023-04-27T05:45:14.708Z,286.22222
2023-04-27T05:50:16.086Z,280.61202
2023-04-27T05:55:17.489Z,273.41176
2023-04-27T06:00:18.834Z,256.69036
2023-04-27T06:05:20.331Z,256.69036
2023-04-27T06:10:21.685Z,255.11111
2023-04-27T06:15:22.950Z,250.46766
2023-04-27T06:20:24.232Z,248.9505
2023-04-27T06:25:27.183Z,250.46766
2023-04-27T06:30:28.782Z,321.91411
2023-04-27T06:35:30.112Z,324.24691
2023-04-27T06:40:31.332Z,329
2023-04-27T06:45:32.734Z,351.94702
2023-04-27T06:50:34.374Z,349.26316
2023-04-27T06:55:36.058Z,387.16547
2023-04-27T07:00:37.508Z,374.76923
2023-04-27T07:05:39.208Z,393.63504
2023-04-27T07:10:40.790Z,380.87943
2023-04-27T07:15:42.336Z,374.76923
2023-04-27T07:20:44.087Z,377.80282
2023-04-27T07:25:45.681Z,390.37681
2023-04-27T07:30:47.390Z,390.37681
2023-04-27T07:35:49.133Z,400.2963
2023-04-27T07:40:50.462Z,393.63504
2023-04-27T07:45:52.118Z,396.94118
2023-04-27T07:50:53.415Z,429.03937
2023-04-27T07:55:54.790Z,429.03937
2023-04-27T08:00:56.202Z,407.15789
2023-04-27T08:05:58.194Z,421.51938
2023-04-27T08:11:00.083Z,407.15789
2023-04-27T08:16:02.823Z,417.84615
2023-04-27T08:21:04.800Z,440.77419
2023-04-27T08:26:06.681Z,453.09091
2023-04-27T08:31:09.008Z,453.09091
2023-04-27T08:36:11.037Z,429.03937
2023-04-27T08:41:21.332Z,436.8
2023-04-27T08:46:23.921Z,432.88889
2023-04-27T08:51:25.503Z,440.77419
2023-04-27T08:56:26.992Z,440.77419
2023-04-27T09:01:28.525Z,429.03937
2023-04-27T09:06:29.930Z,425.25
2023-04-27T09:11:31.279Z,448.91803
2023-04-27T09:16:32.899Z,417.84615
2023-04-27T09:21:34.344Z,448.91803
2023-04-27T09:26:35.951Z,432.88889
2023-04-27T09:31:37.885Z,479.65217
2023-04-27T09:36:39.579Z,453.09091
2023-04-27T09:41:41.199Z,466.0339
2023-04-27T09:46:42.976Z,448.91803
2023-04-27T09:51:44.924Z,466.0339
2023-04-27T09:56:46.683Z,461.64706
2023-04-27T10:01:48.395Z,470.49573
2023-04-27T10:06:50.136Z,470.49573
2023-04-27T10:11:51.898Z,475.03448
2023-04-27T10:16:53.874Z,484.35088
2023-04-27T10:21:55.741Z,484.35088
2023-04-27T10:26:57.837Z,457.33333
2023-04-27T10:31:59.956Z,475.03448
2023-04-27T10:37:02.230Z,470.49573
2023-04-27T10:42:05.036Z,479.65217
2023-04-27T10:47:07.043Z,489.13274
2023-04-27T10:52:09.088Z,470.49573
2023-04-27T10:57:11.207Z,494
2023-04-27T11:02:13.230Z,470.49573
2023-04-27T11:07:15.312Z,461.64706
2023-04-27T11:12:16.932Z,494
2023-04-27T11:17:18.474Z,484.35088
2023-04-27T11:22:20.212Z,466.0339
2023-04-27T11:27:22.260Z,436.8
2023-04-27T11:32:24.060Z,417.84615
2023-04-27T11:37:25.664Z,396.94118
2023-04-27T11:42:27.520Z,387.16547
2023-04-27T11:47:29.486Z,374.76923
2023-04-27T11:52:31.369Z,403.70149
2023-04-27T11:57:33.296Z,410.66667
2023-04-27T12:02:35.354Z,407.15789
2023-04-27T12:07:37.434Z,421.51938
2023-04-27T12:12:39.675Z,425.25
2023-04-27T12:17:41.736Z,432.88889
2023-04-27T12:22:44.329Z,425.25
2023-04-27T12:27:46.253Z,448.91803
2023-04-27T12:32:49.081Z,444.81301
2023-04-27T12:37:51.629Z,466.0339
2023-04-27T12:42:53.722Z,470.49573
2023-04-27T12:48:02.761Z,436.8
2023-04-27T12:53:06.006Z,470.49573
2023-04-27T12:58:07.869Z,466.0339
2023-04-27T13:03:10.014Z,466.0339
2023-04-27T13:08:11.957Z,453.09091
2023-04-27T13:13:13.783Z,457.33333
2023-04-27T13:18:15.706Z,470.49573
2023-04-27T13:23:17.562Z,461.64706
2023-04-27T13:28:19.786Z,470.49573
2023-04-27T13:33:23.533Z,457.33333
2023-04-27T13:38:26.327Z,484.35088
2023-04-27T13:43:29.252Z,461.64706
2023-04-27T13:48:32.220Z,475.03448
2023-04-27T13:53:35.048Z,470.49573
2023-04-27T13:58:37.085Z,466.0339
2023-04-27T14:03:40.341Z,457.33333
2023-04-27T14:08:43.392Z,457.33333
2023-04-27T14:13:45.014Z,457.33333
2023-04-27T14:18:46.441Z,475.03448
2023-04-27T14:23:48.113Z,448.91803
2023-04-27T14:28:50.098Z,466.0339
2023-04-27T14:33:52.789Z,461.64706
2023-04-27T14:38:55.808Z,466.0339
2023-04-27T14:43:58.688Z,453.09091
2023-04-27T14:49:00.873Z,470.49573
2023-04-27T14:54:02.622Z,410.66667
2023-04-27T14:59:04.457Z,461.64706
2023-04-27T15:04:06.114Z,457.33333
2023-04-27T15:09:08.030Z,448.91803
2023-04-27T15:14:09.576Z,448.91803
2023-04-27T15:19:11.223Z,440.77419
2023-04-27T15:24:13.202Z,421.51938
2023-04-27T15:29:15.075Z,436.8
2023-04-27T15:34:16.856Z,417.84615
2023-04-27T15:39:18.485Z,436.8
2023-04-27T15:44:20.487Z,410.66667
2023-04-27T15:49:22.758Z,414.22901
2023-04-27T15:54:25.315Z,396.94118
2023-04-27T15:59:27.778Z,400.2963
2023-04-27T16:04:30.413Z,403.70149
2023-04-27T16:09:32.298Z,387.16547
2023-04-27T16:14:34.127Z,384
2023-04-27T16:19:36.352Z,384
2023-04-27T16:24:38.039Z,363.04762
2023-04-27T16:29:39.804Z,357.42282
2023-04-27T16:34:41.475Z,354.66667
2023-04-27T16:39:43.148Z,344
2023-04-27T16:44:45.193Z,338.87179
2023-04-27T16:49:47.604Z,336.35669
2023-04-27T16:54:50.370Z,349.26316
2023-04-27T16:59:53.089Z,351.94702
2023-04-27T17:04:55.414Z,363.04762
2023-04-27T17:09:57.493Z,363.04762
2023-04-27T17:14:59.555Z,365.91781
2023-04-27T17:20:01.638Z,357.42282
2023-04-27T17:25:04.051Z,371.77778
2023-04-27T17:30:08.260Z,368.82759
2023-04-27T17:35:10.525Z,371.77778
2023-04-27T17:40:12.442Z,368.82759
2023-04-27T17:45:14.739Z,365.91781
2023-04-27T17:50:17.116Z,357.42282
2023-04-27T17:55:19.610Z,351.94702
2023-04-27T18:00:22.774Z,349.26316
2023-04-27T18:05:26.297Z,351.94702
2023-04-27T18:10:29.180Z,363.04762
2023-04-27T18:15:32.024Z,368.82759
2023-04-27T18:20:34.710Z,363.04762
2023-04-27T18:25:37.109Z,357.42282
2023-04-27T18:30:39.313Z,349.26316
2023-04-27T18:35:41.337Z,349.26316
2023-04-27T18:40:43.323Z,344
2023-04-27T18:45:45.320Z,346.61438
2023-04-27T18:50:47.408Z,333.87342
2023-04-27T18:55:49.322Z,346.61438
2023-04-27T19:00:51.723Z,341.41935
2023-04-27T19:05:54.448Z,344
2023-04-27T19:10:58.497Z,344
2023-04-27T19:16:01.741Z,349.26316
2023-04-27T19:21:03.942Z,341.41935
2023-04-27T19:26:13.155Z,346.61438
2023-04-27T19:31:16.289Z,341.41935
2023-04-27T19:36:18.115Z,341.41935
2023-04-27T19:41:19.715Z,338.87179
2023-04-27T19:46:21.708Z,331.42138
2023-04-27T19:51:23.497Z,341.41935
2023-04-27T19:56:26.134Z,349.26316
2023-04-27T20:01:28.135Z,344
2023-04-27T20:06:29.888Z,344
2023-04-27T20:11:31.577Z,341.41935
2023-04-27T20:16:33.540Z,341.41935
2023-04-27T20:21:36.477Z,333.87342
2023-04-27T20:26:39.053Z,321.91411
2023-04-27T20:31:41.655Z,326.6087
2023-04-27T20:36:43.700Z,326.6087
2023-04-27T20:41:45.752Z,326.6087
2023-04-27T20:46:47.826Z,331.42138
2023-04-27T20:51:50.076Z,333.87342
2023-04-27T20:56:51.682Z,333.87342
2023-04-27T21:01:53.092Z,331.42138
2023-04-27T21:06:54.378Z,326.6087
2023-04-27T21:11:55.672Z,329
2023-04-27T21:16:57.075Z,329
2023-04-27T21:21:58.711Z,338.87179
2023-04-27T21:27:00.115Z,360.21622
2023-04-27T21:32:01.482Z,341.41935
2023-04-27T21:37:02.785Z,329
2023-04-27T21:42:04.129Z,317.33333
2023-04-27T21:47:05.605Z,321.91411
2023-04-27T21:52:06.993Z,349.26316
2023-04-27T21:57:08.317Z,374.76923
2023-04-27T22:02:09.604Z,390.37681
2023-04-27T22:07:10.890Z,396.94118
2023-04-27T22:12:12.460Z,429.03937
2023-04-27T22:17:13.973Z,421.51938
2023-04-27T22:22:15.372Z,432.88889
2023-04-27T22:27:17.008Z,436.8
2023-04-27T22:32:18.748Z,425.25
2023-04-27T22:37:20.350Z,421.51938
2023-04-27T22:42:21.952Z,421.51938
2023-04-27T22:47:23.630Z,414.22901
2023-04-27T22:52:25.014Z,417.84615
2023-04-27T22:57:26.358Z,421.51938
2023-04-27T23:02:28.190Z,421.51938
2023-04-27T23:07:29.968Z,429.03937
2023-04-27T23:12:31.625Z,429.03937
2023-04-27T23:17:33.224Z,421.51938
2023-04-27T23:22:34.558Z,425.25
2023-04-27T23:27:35.908Z,429.03937
2023-04-27T23:32:37.367Z,429.03937
2023-04-27T23:37:38.764Z,425.25
2023-04-27T23:42:40.040Z,425.25
2023-04-27T23:47:41.730Z,429.03937
2023-04-27T23:52:43.189Z,417.84615
2023-04-27T23:57:44.586Z,425.25
